Time;durP1;ratioP1;P1;durP2;ratioP2;P2;SDS_P1;SDS_P2;PMS_P1;PMS_P2;Temp;Humidity;BMP_temperature;BMP_pressure;BME280_temperature;BME280_humidity;BME280_pressure;Samples;Min_cycle;Max_cycle;Signal;HPM_P1;HPM_P2
2024/02/20 00:01:32;;;;;;;226.00;60.22;;;;;;;;;;4998094;28;20177;-45
2024/02/20 00:03:58;;;;;;;227.73;60.08;;;;;;;;;;4995587;28;20223;-44
2024/02/20 00:06:24;;;;;;;225.37;58.77;;;;;;;;;;4996273;28;20527;-44
2024/02/20 00:08:50;;;;;;;229.03;62.70;;;;;;;;;;4996811;28;20775;-45
2024/02/20 00:11:16;;;;;;;225.47;59.20;;;;;;;;;;4997801;28;20783;-45
2024/02/20 00:13:42;;;;;;;228.90;61.07;;;;;;;;;;4997270;28;20782;-46
2024/02/20 00:16:09;;;;;;;227.20;60.83;;;;;;;;;;4995408;28;20659;-45
2024/02/20 00:18:35;;;;;;;225.90;59.13;;;;;;;;;;4994945;28;20569;-45
2024/02/20 00:21:01;;;;;;;233.77;67.50;;;;;;;;;;4995229;28;20403;-45
2024/02/20 00:23:27;;;;;;;227.30;60.87;;;;;;;;;;4996056;28;20291;-46
2024/02/20 00:25:53;;;;;;;227.55;60.15;;;;;;;;;;4996415;28;20899;-46
2024/02/20 00:28:19;;;;;;;226.32;59.78;;;;;;;;;;4999510;28;20181;-44
2024/02/20 00:30:46;;;;;;;227.18;61.55;;;;;;;;;;4997107;28;20176;-45
2024/02/20 00:33:12;;;;;;;226.93;60.10;;;;;;;;;;4995690;28;20196;-45
2024/02/20 00:35:38;;;;;;;227.63;61.45;;;;;;;;;;5000327;28;20207;-45
2024/02/20 00:38:04;;;;;;;228.47;62.27;;;;;;;;;;4999159;28;20248;-45
2024/02/20 00:40:30;;;;;;;227.55;61.67;;;;;;;;;;5002763;28;20473;-45
2024/02/20 00:42:57;;;;;;;228.67;61.37;;;;;;;;;;5003789;28;20671;-44
2024/02/20 00:45:23;;;;;;;229.48;61.25;;;;;;;;;;4999269;28;20445;-48
2024/02/20 00:47:49;;;;;;;228.60;60.97;;;;;;;;;;5001052;28;20259;-44
2024/02/20 00:50:16;;;;;;;229.80;63.03;;;;;;;;;;4999396;28;20415;-44
2024/02/20 00:52:42;;;;;;;228.35;61.58;;;;;;;;;;5002750;28;20706;-46
2024/02/20 00:55:09;;;;;;;235.45;67.05;;;;;;;;;;5000601;28;20553;-45
2024/02/20 00:57:35;;;;;;;230.05;62.15;;;;;;;;;;5002367;28;20262;-45
2024/02/20 01:00:01;;;;;;;230.48;62.58;;;;;;;;;;4998994;28;20260;-44
2024/02/20 01:02:27;;;;;;;226.80;60.70;;;;;;;;;;4998598;28;20185;-44
2024/02/20 01:04:52;;;;;;;228.07;61.70;;;;;;;;;;5008306;28;20450;-45
2024/02/20 01:07:18;;;;;;;228.77;61.30;;;;;;;;;;5013624;28;20980;-45
2024/02/20 01:09:44;;;;;;;227.10;61.00;;;;;;;;;;5014516;28;20909;-45
2024/02/20 01:12:10;;;;;;;227.07;61.03;;;;;;;;;;5014517;28;20472;-45
2024/02/20 01:14:37;;;;;;;229.10;62.83;;;;;;;;;;5014448;28;20458;-47
2024/02/20 01:17:03;;;;;;;228.18;60.85;;;;;;;;;;5013273;28;20678;-46
2024/02/20 01:19:29;;;;;;;230.10;63.00;;;;;;;;;;5014224;28;20167;-45
2024/02/20 01:21:55;;;;;;;226.48;60.60;;;;;;;;;;5014301;28;20183;-45
2024/02/20 01:24:22;;;;;;;227.43;60.97;;;;;;;;;;5014618;28;20195;-44
2024/02/20 01:26:48;;;;;;;229.55;63.10;;;;;;;;;;5014660;28;20203;-46
2024/02/20 01:29:13;;;;;;;227.47;61.10;;;;;;;;;;5014559;28;20668;-44
2024/02/20 01:31:39;;;;;;;229.63;63.50;;;;;;;;;;5014399;28;20799;-44
2024/02/20 01:34:05;;;;;;;228.57;61.03;;;;;;;;;;5015068;28;20429;-44
2024/02/20 01:36:32;;;;;;;228.35;62.53;;;;;;;;;;5014187;28;20180;-45
2024/02/20 01:38:58;;;;;;;227.43;61.55;;;;;;;;;;4998119;28;20568;-45
2024/02/20 01:41:24;;;;;;;228.87;62.17;;;;;;;;;;5002162;28;20172;-44
2024/02/20 01:43:49;;;;;;;229.17;62.77;;;;;;;;;;5002497;28;20431;-45
2024/02/20 01:46:22;;;;;;;229.10;61.83;;;;;;;;;;4997586;28;20780;-46
2024/02/20 01:48:49;;;;;;;228.75;63.28;;;;;;;;;;4998498;28;20166;-45
2024/02/20 01:51:15;;;;;;;228.70;63.05;;;;;;;;;;4999035;28;20171;-45
2024/02/20 01:53:41;;;;;;;226.02;61.05;;;;;;;;;;5000696;28;20204;-44
2024/02/20 01:56:08;;;;;;;228.07;61.70;;;;;;;;;;5001861;28;20188;-45
2024/02/20 01:58:34;;;;;;;230.13;63.63;;;;;;;;;;5005165;28;20655;-44
2024/02/20 02:01:02;;;;;;;225.93;60.83;;;;;;;;;;4997652;28;20173;-45
2024/02/20 02:03:28;;;;;;;229.40;62.20;;;;;;;;;;4996525;28;20545;-44
2024/02/20 02:05:54;;;;;;;226.87;61.93;;;;;;;;;;5000325;28;20608;-45
2024/02/20 02:08:20;;;;;;;228.00;61.90;;;;;;;;;;5000153;28;20481;-46
2024/02/20 02:10:46;;;;;;;227.13;61.43;;;;;;;;;;4999928;28;20415;-45
2024/02/20 02:13:12;;;;;;;224.90;58.97;;;;;;;;;;5000214;28;20468;-44
2024/02/20 02:15:38;;;;;;;228.97;61.87;;;;;;;;;;4998656;28;20457;-44
2024/02/20 02:18:04;;;;;;;227.43;61.00;;;;;;;;;;4997696;28;20457;-45
2024/02/20 02:20:30;;;;;;;225.25;59.40;;;;;;;;;;5000330;28;20529;-45
2024/02/20 02:22:56;;;;;;;228.60;62.03;;;;;;;;;;4998072;28;20190;-45
2024/02/20 02:25:24;;;;;;;227.67;62.37;;;;;;;;;;5002585;28;20413;-45
2024/02/20 02:27:50;;;;;;;228.80;62.45;;;;;;;;;;4995485;28;20925;-44
2024/02/20 02:30:16;;;;;;;226.90;61.08;;;;;;;;;;4997170;28;20172;-45
2024/02/20 02:32:42;;;;;;;229.57;62.70;;;;;;;;;;4999322;28;20231;-44
2024/02/20 02:35:09;;;;;;;234.20;67.20;;;;;;;;;;4996782;28;20420;-45
2024/02/20 02:37:35;;;;;;;226.50;60.42;;;;;;;;;;5001949;28;20409;-45
2024/02/20 02:40:04;;;;;;;227.68;61.88;;;;;;;;;;4994005;28;20173;-44
2024/02/20 02:42:30;;;;;;;227.40;61.45;;;;;;;;;;4997315;28;20180;-45
2024/02/20 02:44:56;;;;;;;226.65;59.88;;;;;;;;;;4997305;28;20222;-46
2024/02/20 02:47:22;;;;;;;227.57;60.27;;;;;;;;;;4998308;28;20660;-44
2024/02/20 02:49:48;;;;;;;225.07;59.27;;;;;;;;;;4998587;28;20951;-45
2024/02/20 02:52:13;;;;;;;227.68;60.70;;;;;;;;;;4998501;28;20463;-45
2024/02/20 02:54:39;;;;;;;227.87;62.60;;;;;;;;;;5003703;28;20207;-47
2024/02/20 02:57:06;;;;;;;225.80;59.67;;;;;;;;;;4994215;28;20878;-45
2024/02/20 02:59:32;;;;;;;230.73;63.42;;;;;;;;;;4997932;28;20469;-45
2024/02/20 03:01:58;;;;;;;226.18;61.13;;;;;;;;;;4999008;28;20264;-44
2024/02/20 03:04:24;;;;;;;225.20;60.05;;;;;;;;;;4999982;28;20313;-45
2024/02/20 03:06:50;;;;;;;224.60;59.33;;;;;;;;;;4998286;28;20613;-46
2024/02/20 03:09:18;;;;;;;224.43;59.17;;;;;;;;;;4999231;28;21121;-44
2024/02/20 03:11:44;;;;;;;223.73;58.00;;;;;;;;;;4996137;28;20211;-45
2024/02/20 03:14:10;;;;;;;226.60;59.55;;;;;;;;;;4996261;28;20246;-45
2024/02/20 03:16:36;;;;;;;225.80;59.40;;;;;;;;;;4999253;28;20172;-44
2024/02/20 03:19:03;;;;;;;225.63;59.67;;;;;;;;;;4989969;28;20184;-45
2024/02/20 03:21:31;;;;;;;228.43;60.65;;;;;;;;;;4997036;28;20177;-44
2024/02/20 03:23:57;;;;;;;224.40;59.08;;;;;;;;;;4996831;28;20559;-44
2024/02/20 03:26:23;;;;;;;223.70;58.07;;;;;;;;;;4996210;28;20252;-47
2024/02/20 03:28:49;;;;;;;227.20;60.70;;;;;;;;;;4997818;28;20403;-45
2024/02/20 03:31:14;;;;;;;225.67;58.60;;;;;;;;;;4997907;28;20495;-46
2024/02/20 03:33:40;;;;;;;225.33;59.27;;;;;;;;;;5001001;28;20422;-45
2024/02/20 03:36:07;;;;;;;225.97;60.07;;;;;;;;;;4995684;28;20400;-45
2024/02/20 03:38:33;;;;;;;228.60;60.95;;;;;;;;;;4998192;28;20435;-45
2024/02/20 03:40:59;;;;;;;225.52;58.35;;;;;;;;;;5012027;28;20208;-46
2024/02/20 03:43:26;;;;;;;226.60;59.97;;;;;;;;;;5011695;28;20223;-45
2024/02/20 03:45:52;;;;;;;226.95;59.53;;;;;;;;;;5011520;28;20690;-46
2024/02/20 03:48:18;;;;;;;224.10;58.77;;;;;;;;;;5011874;28;20184;-45
2024/02/20 03:50:44;;;;;;;226.37;60.17;;;;;;;;;;5012501;28;20457;-46
2024/02/20 03:53:09;;;;;;;225.07;59.10;;;;;;;;;;5012198;28;20930;-46
2024/02/20 03:55:36;;;;;;;224.40;58.87;;;;;;;;;;5011531;28;20931;-45
2024/02/20 03:58:02;;;;;;;226.27;58.75;;;;;;;;;;5011719;28;20417;-46
2024/02/20 04:00:28;;;;;;;224.32;59.72;;;;;;;;;;5011735;28;20168;-45
2024/02/20 04:02:56;;;;;;;227.50;60.75;;;;;;;;;;5011835;28;20542;-45
2024/02/20 04:05:22;;;;;;;225.60;59.78;;;;;;;;;;5011358;28;20180;-45
2024/02/20 04:07:48;;;;;;;224.57;59.10;;;;;;;;;;5010110;28;20547;-46
2024/02/20 04:10:14;;;;;;;225.87;60.00;;;;;;;;;;5010804;28;20764;-46
2024/02/20 04:12:44;;;;;;;228.25;61.55;;;;;;;;;;5011389;28;20455;-46
2024/02/20 04:15:14;;;;;;;227.63;62.53;;;;;;;;;;5011446;28;20185;-46
2024/02/20 04:17:40;;;;;;;225.38;59.42;;;;;;;;;;5011353;28;20531;-46
2024/02/20 04:20:07;;;;;;;226.10;59.75;;;;;;;;;;5011767;28;20202;-46
2024/02/20 04:22:33;;;;;;;227.95;60.88;;;;;;;;;;5011338;28;20182;-46
2024/02/20 04:25:02;;;;;;;224.63;58.15;;;;;;;;;;5010780;28;20192;-45
2024/02/20 04:27:28;;;;;;;226.70;60.33;;;;;;;;;;5011298;28;20191;-45
2024/02/20 04:29:55;;;;;;;224.48;59.50;;;;;;;;;;5011033;28;20175;-46
2024/02/20 04:32:21;;;;;;;228.55;62.20;;;;;;;;;;5010950;28;20311;-46
2024/02/20 04:34:47;;;;;;;228.38;62.58;;;;;;;;;;5011374;28;20217;-46
2024/02/20 04:37:14;;;;;;;226.65;61.15;;;;;;;;;;5010918;28;20172;-46
2024/02/20 04:39:40;;;;;;;228.15;60.67;;;;;;;;;;5010969;28;20640;-46
2024/02/20 04:42:06;;;;;;;227.38;61.85;;;;;;;;;;5010952;28;20226;-46
2024/02/20 04:44:32;;;;;;;231.27;63.87;;;;;;;;;;5010716;28;20234;-45
2024/02/20 04:47:00;;;;;;;227.43;62.87;;;;;;;;;;5010652;28;20418;-47
2024/02/20 04:49:26;;;;;;;230.90;64.75;;;;;;;;;;5010860;28;20414;-47
2024/02/20 04:51:51;;;;;;;227.87;62.33;;;;;;;;;;5010775;28;20518;-45
2024/02/20 04:54:17;;;;;;;227.30;62.20;;;;;;;;;;5010895;28;20482;-46
2024/02/20 04:56:43;;;;;;;229.10;62.50;;;;;;;;;;5010454;28;20458;-46
2024/02/20 04:59:09;;;;;;;225.33;60.97;;;;;;;;;;5011029;28;20418;-47
2024/02/20 05:01:35;;;;;;;226.93;61.20;;;;;;;;;;5010725;28;20422;-46
2024/02/20 05:04:01;;;;;;;229.87;63.77;;;;;;;;;;5010619;28;20461;-46
2024/02/20 05:06:27;;;;;;;230.77;64.30;;;;;;;;;;5010355;28;20430;-46
2024/02/20 05:08:53;;;;;;;225.47;60.90;;;;;;;;;;5005212;28;20177;-46
2024/02/20 05:11:19;;;;;;;226.77;60.40;;;;;;;;;;5006713;28;20422;-46
2024/02/20 05:13:45;;;;;;;229.33;64.03;;;;;;;;;;5003509;28;20469;-46
2024/02/20 05:16:11;;;;;;;224.93;60.30;;;;;;;;;;4991455;28;20922;-47
2024/02/20 05:18:37;;;;;;;228.93;62.80;;;;;;;;;;5002806;28;20489;-46
2024/02/20 05:21:05;;;;;;;229.43;62.03;;;;;;;;;;5002848;28;20396;-46
2024/02/20 05:23:31;;;;;;;229.07;61.55;;;;;;;;;;5011946;28;20958;-45
2024/02/20 05:25:57;;;;;;;227.97;62.80;;;;;;;;;;5013787;28;20186;-46
2024/02/20 05:28:23;;;;;;;230.07;62.27;;;;;;;;;;5014075;28;20410;-46
2024/02/20 05:30:49;;;;;;;227.68;61.03;;;;;;;;;;5014148;28;20443;-47
2024/02/20 05:33:15;;;;;;;225.17;58.93;;;;;;;;;;5010664;28;20292;-46
2024/02/20 05:35:44;;;;;;;229.38;62.40;;;;;;;;;;5013530;28;20972;-46
2024/02/20 05:38:10;;;;;;;224.93;59.45;;;;;;;;;;5013808;28;20172;-46
2024/02/20 05:40:36;;;;;;;225.88;59.35;;;;;;;;;;5013804;28;20183;-45
2024/02/20 05:43:02;;;;;;;225.83;60.80;;;;;;;;;;5013897;28;21165;-47
2024/02/20 05:45:30;;;;;;;225.63;60.03;;;;;;;;;;5013489;28;20961;-46
2024/02/20 05:47:56;;;;;;;225.98;58.92;;;;;;;;;;5014025;28;20577;-46
2024/02/20 05:50:23;;;;;;;225.87;60.17;;;;;;;;;;5013397;28;20187;-47
2024/02/20 05:52:48;;;;;;;230.32;61.28;;;;;;;;;;5013414;28;20531;-45
2024/02/20 05:55:15;;;;;;;229.67;62.30;;;;;;;;;;5013270;28;20548;-47
2024/02/20 05:57:41;;;;;;;229.10;62.25;;;;;;;;;;5013746;28;20410;-46
2024/02/20 06:00:07;;;;;;;225.87;59.20;;;;;;;;;;5013472;28;20222;-45
2024/02/20 06:02:34;;;;;;;225.95;60.83;;;;;;;;;;5013277;28;20414;-46
2024/02/20 06:05:00;;;;;;;229.32;61.83;;;;;;;;;;5012991;28;20215;-47
2024/02/20 06:07:27;;;;;;;223.17;58.87;;;;;;;;;;5013174;28;20252;-46
2024/02/20 06:09:53;;;;;;;225.50;58.85;;;;;;;;;;5006011;28;20782;-47
2024/02/20 06:12:19;;;;;;;225.90;59.07;;;;;;;;;;5013117;28;20195;-46
2024/02/20 06:14:45;;;;;;;226.77;59.27;;;;;;;;;;5012811;28;20430;-47
2024/02/20 06:17:11;;;;;;;224.07;58.27;;;;;;;;;;5012836;28;20943;-46
2024/02/20 06:19:37;;;;;;;226.32;59.80;;;;;;;;;;5012810;28;20403;-46
2024/02/20 06:22:03;;;;;;;225.60;59.53;;;;;;;;;;5013060;28;20229;-45
2024/02/20 06:24:29;;;;;;;225.70;57.70;;;;;;;;;;5012791;28;20433;-46
2024/02/20 06:26:54;;;;;;;225.97;58.03;;;;;;;;;;5012564;28;20183;-47
2024/02/20 06:29:21;;;;;;;227.93;60.77;;;;;;;;;;5012603;28;20414;-45
2024/02/20 06:31:51;;;;;;;228.30;60.47;;;;;;;;;;5011080;28;20545;-46
2024/02/20 06:34:17;;;;;;;226.40;59.80;;;;;;;;;;5012100;28;20192;-46
2024/02/20 06:36:43;;;;;;;229.82;62.17;;;;;;;;;;5010371;28;20191;-46
2024/02/20 06:39:09;;;;;;;224.77;58.97;;;;;;;;;;5012050;28;20179;-46
2024/02/20 06:41:35;;;;;;;225.65;59.40;;;;;;;;;;5011891;28;20782;-47
2024/02/20 06:44:01;;;;;;;225.03;59.00;;;;;;;;;;5011910;28;20195;-46
2024/02/20 06:46:27;;;;;;;226.47;59.07;;;;;;;;;;5011834;28;20413;-45
2024/02/20 06:48:53;;;;;;;225.40;60.03;;;;;;;;;;5011730;28;20415;-46
2024/02/20 06:51:22;;;;;;;227.30;60.07;;;;;;;;;;5012151;28;20260;-46
2024/02/20 06:53:48;;;;;;;225.75;59.00;;;;;;;;;;5011830;28;20458;-46
2024/02/20 06:56:14;;;;;;;224.77;57.40;;;;;;;;;;5011610;28;20294;-46
2024/02/20 06:58:40;;;;;;;231.97;63.20;;;;;;;;;;5011507;28;20481;-47
2024/02/20 07:01:06;;;;;;;225.00;58.00;;;;;;;;;;5011519;28;20427;-46
2024/02/20 07:03:32;;;;;;;227.75;59.92;;;;;;;;;;5011407;28;20457;-45
2024/02/20 07:05:58;;;;;;;226.55;59.40;;;;;;;;;;5003254;28;20176;-46
2024/02/20 07:08:24;;;;;;;224.23;58.53;;;;;;;;;;5004117;28;20177;-46
2024/02/20 07:10:50;;;;;;;228.00;61.65;;;;;;;;;;4993355;28;20791;-47
2024/02/20 07:13:19;;;;;;;226.37;59.90;;;;;;;;;;4996126;28;20215;-46
2024/02/20 07:15:45;;;;;;;230.15;61.47;;;;;;;;;;4994635;28;20894;-46
2024/02/20 07:18:11;;;;;;;226.70;61.10;;;;;;;;;;4997173;28;20175;-46
2024/02/20 07:20:37;;;;;;;227.48;60.55;;;;;;;;;;4998363;28;20176;-46
2024/02/20 07:23:04;;;;;;;226.40;59.20;;;;;;;;;;4995064;28;20211;-46
2024/02/20 07:25:30;;;;;;;228.65;60.47;;;;;;;;;;4995777;28;20190;-46
2024/02/20 07:27:56;;;;;;;230.70;64.53;;;;;;;;;;4994893;28;20188;-45
2024/02/20 07:30:21;;;;;;;228.47;64.37;;;;;;;;;;4995794;28;20614;-46
2024/02/20 07:32:47;;;;;;;228.90;63.20;;;;;;;;;;4996585;28;20457;-46
2024/02/20 07:35:14;;;;;;;230.13;64.23;;;;;;;;;;4997882;28;20403;-46
2024/02/20 07:37:40;;;;;;;229.73;63.45;;;;;;;;;;5000204;28;20429;-48
2024/02/20 07:40:08;;;;;;;227.98;62.45;;;;;;;;;;5000056;28;20660;-46
2024/02/20 07:42:35;;;;;;;231.95;65.65;;;;;;;;;;4996130;28;20181;-46
2024/02/20 07:45:01;;;;;;;233.90;68.57;;;;;;;;;;4988633;28;20203;-45
2024/02/20 07:47:27;;;;;;;226.67;60.87;;;;;;;;;;4997311;28;20180;-47
2024/02/20 07:49:53;;;;;;;225.23;60.87;;;;;;;;;;4995856;28;20427;-45
2024/02/20 07:52:19;;;;;;;228.45;62.78;;;;;;;;;;4998374;28;20552;-46
2024/02/20 07:54:45;;;;;;;230.77;63.93;;;;;;;;;;5000912;28;20722;-46
2024/02/20 07:57:11;;;;;;;231.20;63.77;;;;;;;;;;4993685;28;20412;-45
2024/02/20 07:59:37;;;;;;;228.47;63.30;;;;;;;;;;4996834;28;20415;-46
2024/02/20 08:02:07;;;;;;;226.03;60.60;;;;;;;;;;5022953;28;20431;-46
2024/02/20 08:04:34;;;;;;;233.73;67.78;;;;;;;;;;4995076;28;20525;-44
2024/02/20 08:07:00;;;;;;;231.55;63.80;;;;;;;;;;5009746;28;20741;-45
2024/02/20 08:09:26;;;;;;;229.60;64.78;;;;;;;;;;5010580;28;20651;-45
2024/02/20 08:11:52;;;;;;;235.38;67.25;;;;;;;;;;5004883;28;20203;-45
2024/02/20 08:14:19;;;;;;;228.23;63.13;;;;;;;;;;4995106;28;20575;-45
2024/02/20 08:16:49;;;;;;;229.00;62.63;;;;;;;;;;4995588;28;20438;-45
2024/02/20 08:19:15;;;;;;;230.88;65.32;;;;;;;;;;4995013;28;20180;-45
2024/02/20 08:21:41;;;;;;;229.73;63.05;;;;;;;;;;4998976;28;20535;-45
2024/02/20 08:24:07;;;;;;;230.03;62.87;;;;;;;;;;4998699;28;20197;-45
2024/02/20 08:26:33;;;;;;;232.32;66.30;;;;;;;;;;5001708;28;20803;-46
2024/02/20 08:28:59;;;;;;;233.20;68.00;;;;;;;;;;4995075;28;20172;-46
2024/02/20 08:31:25;;;;;;;234.47;69.60;;;;;;;;;;4995675;28;20231;-46
2024/02/20 08:33:51;;;;;;;235.35;70.25;;;;;;;;;;4994774;28;20525;-46
2024/02/20 08:36:17;;;;;;;236.88;71.50;;;;;;;;;;4997164;28;20200;-45
2024/02/20 08:38:44;;;;;;;235.68;69.75;;;;;;;;;;5000189;28;20184;-46
2024/02/20 08:41:10;;;;;;;236.80;71.03;;;;;;;;;;4999122;28;20176;-46
2024/02/20 08:43:36;;;;;;;233.87;67.07;;;;;;;;;;5010877;28;20249;-46
2024/02/20 08:46:02;;;;;;;237.27;70.57;;;;;;;;;;5010721;28;20475;-46
2024/02/20 08:48:28;;;;;;;235.52;69.38;;;;;;;;;;5010579;28;20769;-45
2024/02/20 08:50:54;;;;;;;234.55;68.18;;;;;;;;;;5010782;28;20707;-45
2024/02/20 08:53:20;;;;;;;233.57;66.93;;;;;;;;;;5010593;28;20290;-45
2024/02/20 08:55:46;;;;;;;234.17;67.87;;;;;;;;;;5012204;28;20446;-45
2024/02/20 08:58:12;;;;;;;232.97;65.80;;;;;;;;;;5014384;28;20407;-46
2024/02/20 09:00:37;;;;;;;233.30;67.47;;;;;;;;;;5014372;28;20422;-46
2024/02/20 09:03:04;;;;;;;230.43;63.10;;;;;;;;;;5014072;28;20461;-45
2024/02/20 09:05:30;;;;;;;231.90;65.70;;;;;;;;;;5012901;28;20554;-45
2024/02/20 09:07:56;;;;;;;232.50;66.68;;;;;;;;;;4996144;28;20180;-46
2024/02/20 09:10:24;;;;;;;232.07;65.37;;;;;;;;;;5002098;28;20172;-45
2024/02/20 09:12:50;;;;;;;232.93;65.18;;;;;;;;;;5007483;28;20833;-45
2024/02/20 09:15:16;;;;;;;234.27;68.53;;;;;;;;;;5012836;28;20255;-45
2024/02/20 09:17:42;;;;;;;230.20;63.80;;;;;;;;;;5012704;28;20421;-46
2024/02/20 09:20:10;;;;;;;230.95;64.47;;;;;;;;;;5012759;28;20407;-45
2024/02/20 09:22:38;;;;;;;232.40;65.43;;;;;;;;;;5010822;28;20263;-46
2024/02/20 09:25:06;;;;;;;235.50;69.82;;;;;;;;;;5008376;28;20232;-46
2024/02/20 09:27:32;;;;;;;234.20;66.97;;;;;;;;;;5012754;28;20486;-45
2024/02/20 09:29:58;;;;;;;233.15;67.40;;;;;;;;;;5012610;28;20695;-45
2024/02/20 09:32:24;;;;;;;232.13;65.40;;;;;;;;;;5012388;28;20291;-46
2024/02/20 09:34:52;;;;;;;233.87;67.10;;;;;;;;;;5012434;28;20997;-45
2024/02/20 09:37:18;;;;;;;231.70;65.53;;;;;;;;;;5012770;28;20407;-46
2024/02/20 09:39:44;;;;;;;234.57;67.47;;;;;;;;;;5012251;28;20180;-46
2024/02/20 09:42:13;;;;;;;234.17;68.27;;;;;;;;;;5012578;28;21089;-45
2024/02/20 09:44:41;;;;;;;238.02;70.53;;;;;;;;;;5012474;28;20510;-45
2024/02/20 09:47:07;;;;;;;237.43;70.28;;;;;;;;;;5012044;28;20271;-47
2024/02/20 09:49:34;;;;;;;234.43;67.47;;;;;;;;;;5012303;28;20262;-46
2024/02/20 09:52:00;;;;;;;235.70;69.35;;;;;;;;;;5012373;28;20655;-45
2024/02/20 09:54:27;;;;;;;235.40;70.38;;;;;;;;;;5012273;28;20196;-46
2024/02/20 09:56:54;;;;;;;235.23;68.30;;;;;;;;;;5011853;28;20176;-45
2024/02/20 09:59:20;;;;;;;233.52;67.80;;;;;;;;;;5012145;28;20183;-45
2024/02/20 10:01:48;;;;;;;235.93;69.90;;;;;;;;;;5004217;28;20180;-46
2024/02/20 10:04:14;;;;;;;235.80;68.63;;;;;;;;;;4976405;28;1046290;-46
2024/02/20 10:06:41;;;;;;;237.05;72.28;;;;;;;;;;5012962;28;20223;-45
2024/02/20 10:09:08;;;;;;;236.02;69.28;;;;;;;;;;5008279;28;20227;-45
2024/02/20 10:11:37;;;;;;;236.68;69.47;;;;;;;;;;5011089;28;20175;-46
2024/02/20 10:14:05;;;;;;;236.05;70.20;;;;;;;;;;5012912;28;20199;-45
2024/02/20 10:16:31;;;;;;;240.65;73.03;;;;;;;;;;5012391;28;20168;-45
2024/02/20 10:18:58;;;;;;;241.53;73.43;;;;;;;;;;5005491;28;20178;-46
2024/02/20 10:21:24;;;;;;;241.98;74.70;;;;;;;;;;5010423;28;20403;-45
2024/02/20 10:24:20;;;;;;;238.48;70.05;;;;;;;;;;5012264;28;20208;-46
2024/02/20 10:26:46;;;;;;;241.32;74.00;;;;;;;;;;5006706;28;20196;-45
2024/02/20 10:29:13;;;;;;;244.32;78.38;;;;;;;;;;5011270;28;20188;-46
2024/02/20 10:31:39;;;;;;;241.68;74.43;;;;;;;;;;5012597;28;20648;-45
2024/02/20 10:34:05;;;;;;;239.23;72.83;;;;;;;;;;5012500;28;20196;-45
2024/02/20 10:36:31;;;;;;;240.20;73.77;;;;;;;;;;5012322;28;20439;-46
2024/02/20 10:39:10;;;;;;;240.13;73.07;;;;;;;;;;5012739;28;20413;-45
2024/02/20 10:41:36;;;;;;;241.20;74.45;;;;;;;;;;5006372;28;20512;-46
2024/02/20 10:44:03;;;;;;;246.48;78.68;;;;;;;;;;5004706;28;20204;-45
2024/02/20 10:46:39;;;;;;;247.68;81.07;;;;;;;;;;5010663;28;20206;-46
2024/02/20 10:49:15;;;;;;;241.73;75.95;;;;;;;;;;5011940;28;20557;-45
2024/02/20 10:51:41;;;;;;;242.43;74.57;;;;;;;;;;5011913;28;20777;-45
2024/02/20 10:54:09;;;;;;;236.95;72.07;;;;;;;;;;5010996;28;20568;-45
2024/02/20 10:56:35;;;;;;;244.55;82.38;;;;;;;;;;5011789;28;20172;-45
2024/02/20 10:59:03;;;;;;;241.43;74.82;;;;;;;;;;5012149;28;20252;-46
2024/02/20 11:01:29;;;;;;;241.88;74.63;;;;;;;;;;5012256;28;20185;-45
2024/02/20 11:03:56;;;;;;;237.93;73.38;;;;;;;;;;5011899;28;20216;-45
2024/02/20 11:06:22;;;;;;;239.00;74.10;;;;;;;;;;5011842;28;20331;-45
2024/02/20 11:08:48;;;;;;;239.15;73.03;;;;;;;;;;5009481;28;20180;-46
2024/02/20 11:11:15;;;;;;;237.97;72.47;;;;;;;;;;5007281;28;20180;-45
2024/02/20 11:13:41;;;;;;;236.60;70.47;;;;;;;;;;5012115;28;20606;-45
2024/02/20 11:16:11;;;;;;;237.30;71.07;;;;;;;;;;5011858;28;20646;-45
2024/02/20 11:18:37;;;;;;;236.63;69.80;;;;;;;;;;5011303;28;20176;-45
2024/02/20 11:21:06;;;;;;;242.57;74.38;;;;;;;;;;5011801;28;20188;-46
2024/02/20 11:23:32;;;;;;;237.65;71.22;;;;;;;;;;5011579;28;20188;-45
2024/02/20 11:26:10;;;;;;;237.13;69.40;;;;;;;;;;5011481;28;20787;-45
2024/02/20 11:28:37;;;;;;;239.38;72.28;;;;;;;;;;5011574;28;20188;-45
2024/02/20 11:31:03;;;;;;;238.77;72.55;;;;;;;;;;5011714;28;20195;-46
2024/02/20 11:33:33;;;;;;;238.80;71.82;;;;;;;;;;5011499;28;20208;-45
2024/02/20 11:35:59;;;;;;;237.27;69.32;;;;;;;;;;5011532;28;20253;-46
2024/02/20 11:38:27;;;;;;;237.63;69.97;;;;;;;;;;5011634;28;20169;-45
2024/02/20 11:40:54;;;;;;;237.35;69.95;;;;;;;;;;5011520;28;20597;-45
2024/02/20 11:43:21;;;;;;;237.55;70.63;;;;;;;;;;5011445;28;20208;-46
2024/02/20 11:45:52;;;;;;;239.88;72.90;;;;;;;;;;5011488;28;20172;-46
2024/02/20 11:48:18;;;;;;;239.10;71.75;;;;;;;;;;4993976;28;20181;-45
2024/02/20 11:50:44;;;;;;;240.02;71.35;;;;;;;;;;4995365;28;20176;-45
2024/02/20 11:53:15;;;;;;;241.65;75.95;;;;;;;;;;5010965;28;20218;-46
2024/02/20 11:55:42;;;;;;;240.20;75.72;;;;;;;;;;5010814;28;20170;-46
2024/02/20 11:58:08;;;;;;;237.43;71.75;;;;;;;;;;5010254;28;20551;-45
2024/02/20 12:00:35;;;;;;;246.90;80.00;;;;;;;;;;5011293;28;20567;-45
2024/02/20 12:03:07;;;;;;;241.05;75.00;;;;;;;;;;4997507;28;20642;-46
2024/02/20 12:05:37;;;;;;;241.23;72.80;;;;;;;;;;5002282;28;20176;-45
2024/02/20 12:08:13;;;;;;;236.98;68.93;;;;;;;;;;5007690;28;20574;-45
2024/02/20 12:10:40;;;;;;;242.95;75.38;;;;;;;;;;5002468;28;20184;-45
2024/02/20 12:13:16;;;;;;;240.25;74.38;;;;;;;;;;5010785;28;20239;-45
2024/02/20 12:15:44;;;;;;;241.02;75.47;;;;;;;;;;5010345;28;20262;-45
2024/02/20 12:18:10;;;;;;;243.43;76.18;;;;;;;;;;5009599;28;20710;-46
2024/02/20 12:20:37;;;;;;;245.55;78.32;;;;;;;;;;5009151;28;20254;-46
2024/02/20 12:23:03;;;;;;;241.25;74.25;;;;;;;;;;5010902;28;20189;-45
2024/02/20 12:25:29;;;;;;;243.02;78.13;;;;;;;;;;5009586;28;20276;-45
2024/02/20 12:27:57;;;;;;;238.00;73.10;;;;;;;;;;5009754;28;20264;-45
2024/02/20 12:30:24;;;;;;;240.18;76.00;;;;;;;;;;5012157;28;20421;-46
2024/02/20 12:32:50;;;;;;;244.15;76.65;;;;;;;;;;5014513;28;20203;-46
2024/02/20 12:35:16;;;;;;;242.15;76.10;;;;;;;;;;5014523;28;20180;-46
2024/02/20 12:37:42;;;;;;;241.90;75.30;;;;;;;;;;5014650;28;20243;-45
2024/02/20 12:40:15;;;;;;;239.00;74.23;;;;;;;;;;5014716;28;20404;-45
2024/02/20 12:42:41;;;;;;;240.05;72.80;;;;;;;;;;5014746;28;20421;-45
2024/02/20 12:45:07;;;;;;;241.97;76.07;;;;;;;;;;5014390;28;20257;-44
2024/02/20 12:47:33;;;;;;;244.90;78.57;;;;;;;;;;5014327;28;20414;-45
2024/02/20 12:49:59;;;;;;;239.67;73.37;;;;;;;;;;5014538;28;20263;-45
2024/02/20 12:52:25;;;;;;;239.15;73.50;;;;;;;;;;5014284;28;20507;-45
2024/02/20 12:54:55;;;;;;;241.23;75.25;;;;;;;;;;5014290;28;20199;-45
2024/02/20 12:57:21;;;;;;;239.20;74.38;;;;;;;;;;5014104;28;20237;-45
2024/02/20 12:59:46;;;;;;;240.60;74.77;;;;;;;;;;5014202;28;20181;-45
2024/02/20 13:02:13;;;;;;;239.43;72.67;;;;;;;;;;5014352;28;20421;-45
2024/02/20 13:04:39;;;;;;;242.50;75.78;;;;;;;;;;5013966;28;20458;-45
2024/02/20 13:07:05;;;;;;;240.40;74.70;;;;;;;;;;5014211;28;20180;-45
2024/02/20 13:09:31;;;;;;;240.97;75.80;;;;;;;;;;5006791;28;20502;-46
2024/02/20 13:12:01;;;;;;;241.63;74.15;;;;;;;;;;5013921;28;20454;-46
2024/02/20 13:14:28;;;;;;;243.10;77.82;;;;;;;;;;5013823;28;20298;-46
2024/02/20 13:16:54;;;;;;;240.88;73.03;;;;;;;;;;5013637;28;20171;-45
2024/02/20 13:19:20;;;;;;;240.35;72.88;;;;;;;;;;5014011;28;20224;-45
2024/02/20 13:21:46;;;;;;;242.02;75.28;;;;;;;;;;5013685;28;20662;-45
2024/02/20 13:24:12;;;;;;;241.87;74.47;;;;;;;;;;5013851;28;20267;-46
2024/02/20 13:26:38;;;;;;;239.30;73.20;;;;;;;;;;5013353;28;20777;-44
2024/02/20 13:29:04;;;;;;;241.18;75.60;;;;;;;;;;5014086;28;20421;-45
2024/02/20 13:31:30;;;;;;;241.65;74.43;;;;;;;;;;5013649;28;20199;-45
2024/02/20 13:33:56;;;;;;;243.97;78.20;;;;;;;;;;5013646;28;20231;-44
2024/02/20 13:36:22;;;;;;;244.97;76.80;;;;;;;;;;5013393;28;20442;-45
2024/02/20 13:38:49;;;;;;;243.02;76.53;;;;;;;;;;5013555;28;20968;-44
2024/02/20 13:41:16;;;;;;;243.35;78.13;;;;;;;;;;5013060;28;20175;-45
2024/02/20 13:43:42;;;;;;;243.68;78.10;;;;;;;;;;5013289;28;20725;-45
2024/02/20 13:46:08;;;;;;;245.57;79.57;;;;;;;;;;5013301;28;20187;-45
2024/02/20 13:48:34;;;;;;;244.27;77.10;;;;;;;;;;5013237;28;20415;-44
2024/02/20 13:51:01;;;;;;;244.90;79.60;;;;;;;;;;5013585;28;20767;-45
2024/02/20 13:53:27;;;;;;;244.68;78.50;;;;;;;;;;5013244;28;20293;-46
2024/02/20 13:55:53;;;;;;;244.63;79.07;;;;;;;;;;5013271;28;20172;-46
2024/02/20 13:58:21;;;;;;;242.77;78.50;;;;;;;;;;5006318;28;20184;-45
2024/02/20 14:00:47;;;;;;;244.25;80.50;;;;;;;;;;5012768;28;20897;-45